• pl
  • eng

Awiacja
TAF FC 07:30 22.08.2017
  • WIND
  • SIGNIFICANT EURO
  • SIGNIFICANT
  • SIGMET
  • AIRMET
  • TAF FC
  • TAF FT
  • METAR GG30
  • METAR GG00


TAF EPLB 220530Z 2206/2215 27008KT 9999 BKN035
TEMPO 2210/2215 29015G25KT SHRA BKN030CB
PROB40 TEMPO 2211/2215 4000 TSRA=

TAF EPRA 220530Z 2206/2215 27010KT 9999 SCT015 BKN025
BECMG 2209/2211 BKN035
PROB40 TEMPO 2211/2215 28014G24KT SHRA BKN020CB=

TAF EPSY 220530Z 2206/2215 25008KT 9999 BKN025
TEMPO 2206/2208 BKN010
PROB30 TEMPO 2211/2215 -SHRA BKN020CB=

TAF EPZG 220530Z 2206/2215 25010KT 9999 SCT040
PROB30 TEMPO 2206/2208 BKN013
PROB40 TEMPO 2208/2215 27016G26KT SCT035TCU=
Awiacja.imgw.pl jest pogodowym serwisem informacyjnym
Instytutu Meteorologii i Gospodarki Wodnej Państwowego Instytutu Badawczego.
Copyright IMGW PIB 2009-2011© Wszelkie prawa zastrzeżone.